createdAt,value
2023-10-26T00:02:20.115Z,8.63
2023-10-26T00:04:47.192Z,9.00
2023-10-26T00:07:15.520Z,8.65
2023-10-26T00:09:42.471Z,7.97
2023-10-26T00:12:09.452Z,8.77
2023-10-26T00:14:36.442Z,8.63
2023-10-26T00:17:03.433Z,7.85
2023-10-26T00:19:30.353Z,8.43
2023-10-26T00:21:57.661Z,8.32
2023-10-26T00:24:24.714Z,8.70
2023-10-26T00:26:51.645Z,9.05
2023-10-26T00:29:18.586Z,8.45
2023-10-26T00:31:45.452Z,8.27
2023-10-26T00:34:12.352Z,6.78
2023-10-26T00:36:39.187Z,7.13
2023-10-26T00:39:06.324Z,7.38
2023-10-26T00:41:33.783Z,6.70
2023-10-26T00:44:01.323Z,6.88
2023-10-26T00:46:28.300Z,7.22
2023-10-26T00:48:55.327Z,7.13
2023-10-26T00:51:23.576Z,7.43
2023-10-26T00:53:51.238Z,7.22
2023-10-26T00:56:22.218Z,6.60
2023-10-26T00:58:49.562Z,6.75
2023-10-26T01:01:18.081Z,8.82
2023-10-26T01:03:47.622Z,6.65
2023-10-26T01:06:14.544Z,6.85
2023-10-26T01:08:41.832Z,7.05
2023-10-26T01:11:09.017Z,7.20
2023-10-26T01:13:36.065Z,7.55
2023-10-26T01:16:05.992Z,6.38
2023-10-26T01:18:33.177Z,7.25
2023-10-26T01:21:00.298Z,7.47
2023-10-26T01:23:27.299Z,6.90
2023-10-26T01:25:56.684Z,5.97
2023-10-26T01:28:24.933Z,6.93
2023-10-26T01:30:52.934Z,6.50
2023-10-26T01:33:21.051Z,5.80
2023-10-26T01:35:48.682Z,7.15
2023-10-26T01:38:15.789Z,7.00
2023-10-26T01:40:42.977Z,6.97
2023-10-26T01:43:10.089Z,6.22
2023-10-26T01:45:36.988Z,7.20
2023-10-26T01:48:04.724Z,6.05
2023-10-26T01:50:32.530Z,6.55
2023-10-26T01:52:59.628Z,7.40
2023-10-26T01:55:26.695Z,7.13
2023-10-26T01:57:54.202Z,6.93
2023-10-26T02:00:21.197Z,6.47
2023-10-26T02:02:50.640Z,5.78
2023-10-26T02:05:20.741Z,6.30
2023-10-26T02:07:47.727Z,6.38
2023-10-26T02:10:16.081Z,8.30
2023-10-26T02:12:43.052Z,6.32
2023-10-26T02:15:11.068Z,5.75
2023-10-26T02:17:38.110Z,7.57
2023-10-26T02:20:05.570Z,6.85
2023-10-26T02:22:32.543Z,5.88
2023-10-26T02:24:59.454Z,5.88
2023-10-26T02:27:26.466Z,6.32
2023-10-26T02:29:53.374Z,5.97
2023-10-26T02:32:20.389Z,7.20
2023-10-26T02:34:47.612Z,7.60
2023-10-26T02:37:14.835Z,6.45
2023-10-26T02:39:41.863Z,6.93
2023-10-26T02:42:10.529Z,7.15
2023-10-26T02:44:37.854Z,7.18
2023-10-26T02:47:05.054Z,6.90
2023-10-26T02:49:35.286Z,6.93
2023-10-26T02:52:02.168Z,7.45
2023-10-26T02:54:29.625Z,6.82
2023-10-26T02:56:56.770Z,6.93
2023-10-26T02:59:23.770Z,7.00
2023-10-26T03:01:50.692Z,6.55
2023-10-26T03:04:17.817Z,6.78
2023-10-26T03:06:44.836Z,10.23
2023-10-26T03:09:11.915Z,6.75
2023-10-26T03:11:38.878Z,6.35
2023-10-26T03:14:05.821Z,6.82
2023-10-26T03:16:36.705Z,6.72
2023-10-26T03:19:05.082Z,8.33
2023-10-26T03:21:32.558Z,7.28
2023-10-26T03:23:59.606Z,8.43
2023-10-26T03:26:26.569Z,7.75
2023-10-26T03:28:53.824Z,7.47
2023-10-26T03:31:21.235Z,7.35
2023-10-26T03:33:48.271Z,7.03
2023-10-26T03:36:18.891Z,6.95
2023-10-26T03:38:46.436Z,7.82
2023-10-26T03:41:14.283Z,7.47
2023-10-26T03:43:41.310Z,7.70
2023-10-26T03:46:08.196Z,7.28
2023-10-26T03:48:37.009Z,10.02
2023-10-26T03:51:04.655Z,8.02
2023-10-26T03:53:32.024Z,7.57
2023-10-26T03:55:59.628Z,7.38
2023-10-26T03:58:27.065Z,7.47
2023-10-26T04:00:54.072Z,7.15
2023-10-26T04:03:21.094Z,12.77
2023-10-26T04:05:48.188Z,7.40
2023-10-26T04:08:15.468Z,6.95
2023-10-26T04:10:45.455Z,7.45
2023-10-26T04:13:12.402Z,7.60
2023-10-26T04:15:39.407Z,6.72
2023-10-26T04:18:09.731Z,8.02
2023-10-26T04:20:36.683Z,7.57
2023-10-26T04:23:05.259Z,7.35
2023-10-26T04:25:50.704Z,7.43
2023-10-26T04:28:19.733Z,7.65
2023-10-26T04:30:49.775Z,7.10
2023-10-26T04:33:17.553Z,7.30
2023-10-26T04:35:45.958Z,8.20
2023-10-26T04:38:12.807Z,6.32
2023-10-26T04:40:41.578Z,6.85
2023-10-26T04:43:10.396Z,7.38
2023-10-26T04:45:37.857Z,5.70
2023-10-26T04:48:05.130Z,6.15
2023-10-26T04:50:32.633Z,4.97
2023-10-26T04:53:03.912Z,4.47
2023-10-26T04:55:36.688Z,4.07
2023-10-26T04:58:04.731Z,4.35
2023-10-26T05:00:32.154Z,4.07
2023-10-26T05:03:07.015Z,3.95
2023-10-26T05:05:33.970Z,3.95
2023-10-26T05:08:01.057Z,3.70
2023-10-26T05:10:29.067Z,8.38
2023-10-26T05:12:56.014Z,3.67
2023-10-26T05:15:23.111Z,4.00
2023-10-26T05:17:50.198Z,4.05
2023-10-26T05:20:18.806Z,4.30
2023-10-26T05:22:45.827Z,4.05
2023-10-26T05:25:15.044Z,4.13
2023-10-26T05:27:42.056Z,4.07
2023-10-26T05:30:09.490Z,3.60
2023-10-26T05:32:36.540Z,4.25
2023-10-26T05:35:03.679Z,5.35
2023-10-26T05:37:30.679Z,3.70
2023-10-26T05:39:57.558Z,3.80
2023-10-26T05:42:24.498Z,2.88
2023-10-26T05:44:51.413Z,3.80
2023-10-26T05:47:21.623Z,2.78
2023-10-26T05:49:49.307Z,6.13
2023-10-26T05:52:17.010Z,3.17
2023-10-26T05:54:44.232Z,2.58
2023-10-26T05:57:11.311Z,2.35
2023-10-26T05:59:38.265Z,2.88
2023-10-26T06:02:05.470Z,2.53
2023-10-26T06:04:33.102Z,3.30
2023-10-26T06:07:00.925Z,2.42
2023-10-26T06:09:27.915Z,2.95
2023-10-26T06:11:54.875Z,2.42
2023-10-26T06:14:21.857Z,2.58
2023-10-26T06:16:48.920Z,2.10
2023-10-26T06:19:15.895Z,1.80
2023-10-26T06:21:42.944Z,1.88
2023-10-26T06:24:10.178Z,2.25
2023-10-26T06:26:37.191Z,2.17
2023-10-26T06:29:04.750Z,2.05
2023-10-26T06:31:31.747Z,2.20
2023-10-26T06:34:01.416Z,2.10
2023-10-26T06:36:28.489Z,1.35
2023-10-26T06:38:57.973Z,3.85
2023-10-26T06:41:25.102Z,1.83
2023-10-26T06:43:53.105Z,1.95
2023-10-26T06:46:20.874Z,1.92
2023-10-26T06:48:47.789Z,2.45
2023-10-26T06:51:14.938Z,2.13
2023-10-26T06:53:42.142Z,1.95
2023-10-26T06:56:14.977Z,2.17
2023-10-26T07:01:19.501Z,2.00
2023-10-26T07:03:48.299Z,2.13
2023-10-26T07:06:15.514Z,2.13
2023-10-26T07:08:42.385Z,3.00
2023-10-26T07:11:09.393Z,2.78
2023-10-26T07:13:36.376Z,3.03
2023-10-26T07:16:04.938Z,4.28
2023-10-26T07:18:32.973Z,2.92
2023-10-26T07:20:59.999Z,3.03
2023-10-26T07:23:27.411Z,3.70
2023-10-26T07:25:54.386Z,3.72
2023-10-26T07:28:21.449Z,3.80
2023-10-26T07:30:52.611Z,4.00
2023-10-26T07:33:20.780Z,3.40
2023-10-26T07:36:00.304Z,3.25
2023-10-26T07:38:36.838Z,4.38
2023-10-26T07:43:53.351Z,2.63
2023-10-26T07:46:21.590Z,3.03
2023-10-26T07:48:49.038Z,2.40
2023-10-26T07:51:16.201Z,2.33
2023-10-26T07:53:43.162Z,2.85
2023-10-26T07:56:10.137Z,1.90
2023-10-26T07:58:37.324Z,2.42
2023-10-26T08:01:10.920Z,2.85
2023-10-26T08:03:38.036Z,2.40
2023-10-26T08:06:06.615Z,2.00
2023-10-26T08:08:33.833Z,1.55
2023-10-26T08:11:11.977Z,1.42
2023-10-26T08:13:39.093Z,0.80
2023-10-26T08:16:40.526Z,0.93
2023-10-26T08:18:54.004Z,0.90
2023-10-26T08:21:21.578Z,0.90
2023-10-26T08:23:48.573Z,0.60
2023-10-26T08:26:16.497Z,0.75
2023-10-26T08:28:43.521Z,0.70
2023-10-26T08:31:10.523Z,0.60
2023-10-26T08:33:38.352Z,0.50
2023-10-26T08:36:05.921Z,0.85
2023-10-26T08:38:34.252Z,0.88
2023-10-26T08:41:01.463Z,1.10
2023-10-26T08:43:30.115Z,1.70
2023-10-26T08:45:59.964Z,0.98
2023-10-26T08:48:29.748Z,0.80
2023-10-26T08:50:57.047Z,0.80
2023-10-26T08:53:24.148Z,0.70
2023-10-26T08:55:55.690Z,0.80
2023-10-26T08:58:23.093Z,0.80
2023-10-26T09:00:52.873Z,0.93
2023-10-26T09:03:20.649Z,0.82
2023-10-26T09:05:55.491Z,6.47
2023-10-26T09:08:28.917Z,1.67
2023-10-26T09:10:56.330Z,1.00
2023-10-26T09:13:29.391Z,1.50
2023-10-26T09:15:59.795Z,1.85
2023-10-26T09:18:30.331Z,1.70
2023-10-26T09:21:10.307Z,1.00
2023-10-26T09:23:41.689Z,1.25
2023-10-26T09:26:10.201Z,1.50
2023-10-26T09:28:57.399Z,1.50
2023-10-26T09:31:25.322Z,2.33
2023-10-26T09:33:52.930Z,2.00
2023-10-26T09:36:22.010Z,1.85
2023-10-26T09:38:49.398Z,2.15
2023-10-26T09:41:18.042Z,1.85
2023-10-26T09:43:45.131Z,2.03
2023-10-26T09:46:13.021Z,1.58
2023-10-26T09:48:42.478Z,2.60
2023-10-26T09:51:12.049Z,2.00
2023-10-26T09:53:42.487Z,2.08
2023-10-26T09:56:18.478Z,2.20
2023-10-26T09:58:46.178Z,1.90
2023-10-26T10:01:35.848Z,2.40
2023-10-26T10:04:03.900Z,2.42
2023-10-26T10:06:52.749Z,2.90
2023-10-26T10:09:24.696Z,2.45
2023-10-26T10:12:10.308Z,2.92
2023-10-26T10:14:49.682Z,2.83
2023-10-26T10:17:17.763Z,3.05
2023-10-26T10:19:47.729Z,3.30
2023-10-26T10:22:40.645Z,2.80
2023-10-26T10:25:12.036Z,2.20
2023-10-26T10:27:40.124Z,2.33
2023-10-26T10:30:11.839Z,3.00
2023-10-26T10:32:48.772Z,2.58
2023-10-26T10:35:35.951Z,2.97
2023-10-26T10:38:15.277Z,2.05
2023-10-26T10:41:02.958Z,2.20
2023-10-26T10:43:34.424Z,2.50
2023-10-26T10:46:16.861Z,2.50
2023-10-26T10:49:08.928Z,4.95
2023-10-26T10:51:43.629Z,6.30
2023-10-26T10:54:24.207Z,3.08
2023-10-26T10:56:57.606Z,1.75
2023-10-26T10:59:27.360Z,1.27
2023-10-26T11:02:10.310Z,0.98
2023-10-26T11:04:59.614Z,0.80
2023-10-26T11:07:32.886Z,1.02
2023-10-26T11:10:01.867Z,0.80
2023-10-26T11:12:29.021Z,0.70
2023-10-26T11:14:57.766Z,0.70
2023-10-26T11:17:26.108Z,0.80
2023-10-26T11:19:54.783Z,1.40
2023-10-26T11:22:23.668Z,1.10
2023-10-26T11:24:50.986Z,1.00
2023-10-26T11:27:25.375Z,1.17
2023-10-26T11:30:05.441Z,0.93
2023-10-26T11:32:32.460Z,0.85
2023-10-26T11:35:10.693Z,0.93
2023-10-26T11:37:42.274Z,0.45
2023-10-26T11:40:11.292Z,0.55
2023-10-26T11:42:52.926Z,1.30
2023-10-26T11:45:22.509Z,0.80
2023-10-26T11:48:00.327Z,0.82
2023-10-26T11:50:32.475Z,0.63
2023-10-26T11:53:09.297Z,1.48
2023-10-26T11:55:36.306Z,0.60
2023-10-26T11:58:04.391Z,0.60
2023-10-26T12:00:32.223Z,1.92
2023-10-26T12:03:04.512Z,0.80
2023-10-26T12:05:31.574Z,1.83
2023-10-26T12:07:58.451Z,4.97
2023-10-26T12:10:25.806Z,4.35
2023-10-26T12:12:54.949Z,1.50
2023-10-26T12:15:22.664Z,4.55
2023-10-26T12:17:50.271Z,2.00
2023-10-26T12:20:17.949Z,1.90
2023-10-26T12:22:45.361Z,1.50
2023-10-26T12:25:12.427Z,0.77
2023-10-26T12:28:25.543Z,0.70
2023-10-26T12:30:27.406Z,0.80
2023-10-26T12:33:08.993Z,1.52
2023-10-26T12:35:35.889Z,0.70
2023-10-26T12:38:02.799Z,1.00
2023-10-26T12:40:29.774Z,1.55
2023-10-26T12:43:07.126Z,0.70
2023-10-26T12:45:34.016Z,0.70
2023-10-26T12:48:01.244Z,1.00
2023-10-26T12:50:28.462Z,0.70
2023-10-26T12:52:56.309Z,1.10
2023-10-26T12:55:25.255Z,0.98
2023-10-26T12:57:53.268Z,1.00
2023-10-26T13:00:21.018Z,0.68
2023-10-26T13:02:48.144Z,0.68
2023-10-26T13:05:15.108Z,0.93
2023-10-26T13:07:42.015Z,1.13
2023-10-26T13:10:09.404Z,0.93
2023-10-26T13:12:36.542Z,0.65
2023-10-26T13:15:06.230Z,0.60
2023-10-26T13:17:34.590Z,0.70
2023-10-26T13:20:01.887Z,0.90
2023-10-26T13:22:28.837Z,1.45
2023-10-26T13:24:55.789Z,0.50
2023-10-26T13:27:22.880Z,0.80
2023-10-26T13:29:50.577Z,0.65
2023-10-26T13:32:17.678Z,0.80
2023-10-26T13:34:44.979Z,1.38
2023-10-26T13:37:12.018Z,0.90
2023-10-26T13:39:38.942Z,0.80
2023-10-26T13:42:05.943Z,1.10
2023-10-26T13:44:32.941Z,1.10
2023-10-26T13:46:59.900Z,1.00
2023-10-26T13:49:27.792Z,0.80
2023-10-26T13:51:54.806Z,0.85
2023-10-26T13:54:22.694Z,0.80
2023-10-26T13:56:49.668Z,1.00
2023-10-26T13:59:16.656Z,0.50
2023-10-26T14:01:43.662Z,1.45
2023-10-26T14:04:10.856Z,0.60
2023-10-26T14:06:37.989Z,0.60
2023-10-26T14:09:05.180Z,0.70
2023-10-26T14:11:32.969Z,0.60
2023-10-26T14:14:00.169Z,0.70
2023-10-26T14:16:29.684Z,0.65
2023-10-26T14:18:58.306Z,0.90
2023-10-26T14:21:25.388Z,0.63
2023-10-26T14:23:52.344Z,1.15
2023-10-26T14:26:19.506Z,0.60
2023-10-26T14:28:48.955Z,0.65
2023-10-26T14:31:18.705Z,0.88
2023-10-26T14:33:45.789Z,0.82
2023-10-26T14:36:12.659Z,1.48
2023-10-26T14:38:39.511Z,1.10
2023-10-26T14:41:06.388Z,1.08
2023-10-26T14:43:33.471Z,1.05
2023-10-26T14:46:00.393Z,2.40
2023-10-26T14:48:27.480Z,2.92
2023-10-26T14:51:00.753Z,1.63
2023-10-26T14:53:27.912Z,0.93
2023-10-26T14:55:54.934Z,1.55
2023-10-26T14:58:23.155Z,1.10
2023-10-26T15:00:51.663Z,1.08
2023-10-26T15:03:18.655Z,1.70
2023-10-26T15:05:46.226Z,0.90
2023-10-26T15:08:13.367Z,1.35
2023-10-26T15:10:46.576Z,0.80
2023-10-26T15:13:13.643Z,0.82
2023-10-26T15:15:40.818Z,0.85
2023-10-26T15:18:07.767Z,1.02
2023-10-26T15:20:38.239Z,1.20
2023-10-26T15:23:05.468Z,0.68
2023-10-26T15:25:35.958Z,0.80
2023-10-26T15:28:02.960Z,0.70
2023-10-26T15:30:29.991Z,0.68
2023-10-26T15:32:58.891Z,0.80
2023-10-26T15:35:25.819Z,0.70
2023-10-26T15:37:52.729Z,0.80
2023-10-26T15:40:20.343Z,1.23
2023-10-26T15:42:47.517Z,0.75
2023-10-26T15:45:14.708Z,0.80
2023-10-26T15:47:41.695Z,1.52
2023-10-26T15:50:09.966Z,2.58
2023-10-26T15:52:36.991Z,2.03
2023-10-26T15:55:04.393Z,1.75
2023-10-26T15:57:34.232Z,0.90
2023-10-26T16:00:01.309Z,0.80
2023-10-26T16:02:28.704Z,0.90
2023-10-26T16:04:55.713Z,0.88
2023-10-26T16:07:22.664Z,1.77
2023-10-26T16:09:49.532Z,0.80
2023-10-26T16:12:17.240Z,1.70
2023-10-26T16:14:44.677Z,0.90
2023-10-26T16:17:11.803Z,0.60
2023-10-26T16:19:38.684Z,0.70
2023-10-26T16:22:05.680Z,0.98
2023-10-26T16:24:32.649Z,0.40
2023-10-26T16:26:59.725Z,0.50
2023-10-26T16:29:26.576Z,0.40
2023-10-26T16:31:53.741Z,0.60
2023-10-26T16:34:20.691Z,0.35
2023-10-26T16:36:47.828Z,0.57
2023-10-26T16:39:14.716Z,0.40
2023-10-26T16:41:41.604Z,0.63
2023-10-26T16:44:08.650Z,0.43
2023-10-26T16:46:35.590Z,1.17
2023-10-26T16:49:02.584Z,0.55
2023-10-26T16:51:29.525Z,0.55
2023-10-26T16:53:56.411Z,0.47
2023-10-26T16:56:25.342Z,0.43
2023-10-26T16:58:52.287Z,0.65
2023-10-26T17:01:19.357Z,0.80
2023-10-26T17:03:46.972Z,0.50
2023-10-26T17:06:13.939Z,0.40
2023-10-26T17:08:40.937Z,0.50
2023-10-26T17:11:11.381Z,0.63
2023-10-26T17:13:38.241Z,0.50
2023-10-26T17:16:05.454Z,1.00
2023-10-26T17:18:32.392Z,0.95
2023-10-26T17:20:59.300Z,0.50
2023-10-26T17:23:26.370Z,0.63
2023-10-26T17:25:53.308Z,1.00
2023-10-26T17:28:20.225Z,0.57
2023-10-26T17:30:47.318Z,0.90
2023-10-26T17:33:17.039Z,0.88
2023-10-26T17:35:49.288Z,0.77
2023-10-26T17:38:16.504Z,0.70
2023-10-26T17:40:46.007Z,0.70
2023-10-26T17:43:14.022Z,1.27
2023-10-26T17:45:41.198Z,0.88
2023-10-26T17:48:08.272Z,1.13
2023-10-26T17:50:43.461Z,0.90
2023-10-26T17:53:10.417Z,0.70
2023-10-26T17:55:37.735Z,0.70
2023-10-26T17:58:04.792Z,1.02
2023-10-26T18:00:31.823Z,1.17
2023-10-26T18:02:58.850Z,0.90
2023-10-26T18:05:25.854Z,1.00
2023-10-26T18:07:54.192Z,1.23
2023-10-26T18:10:21.682Z,1.00
2023-10-26T18:12:49.689Z,1.42
2023-10-26T18:15:16.852Z,0.90
2023-10-26T18:17:43.997Z,0.90
2023-10-26T18:20:11.461Z,0.90
2023-10-26T18:22:38.460Z,1.23
2023-10-26T18:25:05.967Z,0.82
2023-10-26T18:27:32.944Z,1.25
2023-10-26T18:30:00.142Z,1.63
2023-10-26T18:32:27.381Z,1.85
2023-10-26T18:34:54.400Z,2.05
2023-10-26T18:37:22.410Z,1.63
2023-10-26T18:39:50.029Z,1.80
2023-10-26T18:42:17.012Z,1.70
2023-10-26T18:44:44.082Z,2.75
2023-10-26T18:47:11.894Z,1.20
2023-10-26T18:49:39.253Z,1.15
2023-10-26T18:52:06.442Z,1.60
2023-10-26T18:54:33.357Z,1.20
2023-10-26T18:57:00.689Z,1.73
2023-10-26T18:59:27.584Z,1.52
2023-10-26T19:01:54.515Z,1.95
2023-10-26T19:04:21.582Z,1.95
2023-10-26T19:06:48.580Z,2.63
2023-10-26T19:09:15.541Z,2.28
2023-10-26T19:11:43.616Z,1.85
2023-10-26T19:14:10.507Z,1.33
2023-10-26T19:16:37.693Z,1.77
2023-10-26T19:19:04.833Z,2.17
2023-10-26T19:21:31.898Z,2.00
2023-10-26T19:23:58.736Z,1.45
2023-10-26T19:26:25.594Z,1.90
2023-10-26T19:28:52.511Z,1.45
2023-10-26T19:31:19.805Z,1.25
2023-10-26T19:33:48.299Z,2.17
2023-10-26T19:36:15.393Z,2.08
2023-10-26T19:38:42.377Z,1.98
2023-10-26T19:41:13.228Z,1.35
2023-10-26T19:43:40.141Z,1.25
2023-10-26T19:46:07.093Z,1.15
2023-10-26T19:48:34.043Z,1.67
2023-10-26T19:51:00.990Z,1.50
2023-10-26T19:53:34.605Z,1.35
2023-10-26T19:56:01.776Z,1.02
2023-10-26T19:58:29.062Z,2.40
2023-10-26T20:00:56.079Z,2.58
2023-10-26T20:03:23.244Z,2.42
2023-10-26T20:05:50.287Z,2.15
2023-10-26T20:08:17.278Z,2.13
2023-10-26T20:10:45.292Z,2.30
2023-10-26T20:13:15.608Z,2.13
2023-10-26T20:15:42.540Z,2.35
2023-10-26T20:18:12.067Z,2.40
2023-10-26T20:23:14.439Z,3.95
2023-10-26T20:25:42.399Z,3.10
2023-10-26T20:28:11.252Z,2.28
2023-10-26T20:30:38.875Z,2.17
2023-10-26T20:33:09.932Z,2.67
2023-10-26T20:35:36.814Z,1.75
2023-10-26T20:38:04.612Z,2.65
2023-10-26T20:40:31.531Z,2.17
2023-10-26T20:43:06.251Z,2.35
2023-10-26T20:45:33.272Z,2.33
2023-10-26T20:48:00.664Z,2.67
2023-10-26T20:50:32.125Z,2.67
2023-10-26T20:53:08.575Z,2.00
2023-10-26T20:55:35.473Z,2.75
2023-10-26T20:58:02.391Z,2.10
2023-10-26T21:00:29.385Z,2.90
2023-10-26T21:02:56.381Z,3.80
2023-10-26T21:05:23.429Z,2.80
2023-10-26T21:07:50.363Z,2.50
2023-10-26T21:10:17.522Z,2.63
2023-10-26T21:12:44.680Z,3.50
2023-10-26T21:15:12.041Z,3.25
2023-10-26T21:17:39.018Z,2.35
2023-10-26T21:20:09.268Z,2.55
2023-10-26T21:22:36.922Z,2.38
2023-10-26T21:25:07.627Z,2.80
2023-10-26T21:27:36.302Z,2.30
2023-10-26T21:30:04.420Z,2.95
2023-10-26T21:32:32.052Z,2.08
2023-10-26T21:34:59.571Z,2.22
2023-10-26T21:37:26.610Z,2.13
2023-10-26T21:39:53.585Z,2.78
2023-10-26T21:42:21.363Z,1.67
2023-10-26T21:44:49.028Z,2.42
2023-10-26T21:47:15.955Z,2.08
2023-10-26T21:49:43.024Z,2.45
2023-10-26T21:52:10.195Z,2.92
2023-10-26T21:54:37.068Z,2.28
2023-10-26T21:57:04.209Z,3.20
2023-10-26T21:59:31.158Z,2.75
2023-10-26T22:01:58.704Z,2.30
2023-10-26T22:04:25.742Z,1.88
2023-10-26T22:06:52.857Z,2.33
2023-10-26T22:09:22.353Z,2.72
2023-10-26T22:11:49.228Z,2.50
2023-10-26T22:14:16.318Z,2.45
2023-10-26T22:16:44.406Z,2.33
2023-10-26T22:19:11.593Z,2.50
2023-10-26T22:21:38.658Z,2.22
2023-10-26T22:24:06.266Z,1.70
2023-10-26T22:26:33.205Z,2.53
2023-10-26T22:29:00.351Z,2.28
2023-10-26T22:31:27.757Z,2.00
2023-10-26T22:33:54.710Z,1.98
2023-10-26T22:36:22.244Z,2.03
2023-10-26T22:38:49.130Z,1.75
2023-10-26T22:41:16.579Z,2.50
2023-10-26T22:43:43.721Z,3.08
2023-10-26T22:46:10.588Z,2.33
2023-10-26T22:48:37.544Z,1.70
2023-10-26T22:51:04.701Z,2.67
2023-10-26T22:53:31.730Z,1.83
2023-10-26T22:56:01.047Z,1.92
2023-10-26T22:58:28.001Z,1.90
2023-10-26T23:00:55.028Z,1.80
2023-10-26T23:03:21.929Z,2.08
2023-10-26T23:05:48.802Z,2.38
2023-10-26T23:08:15.707Z,1.80
2023-10-26T23:10:43.012Z,2.00
2023-10-26T23:13:10.796Z,2.75
2023-10-26T23:15:37.794Z,1.63
2023-10-26T23:18:04.884Z,3.35
2023-10-26T23:20:32.964Z,1.50
2023-10-26T23:23:04.665Z,1.88
2023-10-26T23:25:31.621Z,1.73
2023-10-26T23:28:01.086Z,1.90
2023-10-26T23:30:27.906Z,1.40
2023-10-26T23:32:55.597Z,1.35
2023-10-26T23:35:22.633Z,1.48
2023-10-26T23:37:49.495Z,1.65
2023-10-26T23:40:16.938Z,2.15
2023-10-26T23:42:43.866Z,1.70
2023-10-26T23:45:11.054Z,2.40
2023-10-26T23:47:37.982Z,1.70
2023-10-26T23:50:05.253Z,2.67
2023-10-26T23:52:35.636Z,2.40
2023-10-26T23:55:02.857Z,2.00
2023-10-26T23:57:29.704Z,2.17
2023-10-26T23:59:56.603Z,2.45
